首页
METAR-TAF:

METAR-TAF

机场 :

波羅克瓦尼國際機場

波羅克瓦尼, 南非共和國

纬度: 23-50-43S, 经度: 29-27-31E, 海拔: 1242米

当前天气观测

该预报发布于51分钟前的05:00 UTC
风速1节,风向南转西南
温度 6°C
湿度 65%
气压 1029 hPa
能见度10公里或以上
1500米以下无云,无积雨云

METAR: FAPP 200500Z 21001KT CAVOK 06/M00 Q1029 NOSIG

时间: 07:51 (05:51 UTC)

预报

该预报发布于2小时和51分钟前的03:00 UTC
预报有效从20日的 04点(UTC)到 20日的 15点(UTC)
风速3节,风向多变
能见度10公里或以上
1500米以下无云,无积雨云
成为
从 20日的 07点(UTC)到 20日的 09点(UTC)
风速10节,风向东北

TAF: FAPP 200300Z 2004/2015 VRB03KT CAVOK TX22/2012Z TN05/2004Z BECMG 2007/2009 04010KT

超过4000个机场的气象观测和天气预报(METAR&TAF报告)。

可查询的气象台以黄色和红色小点在地图上表示。

将鼠标移到小点上方,可查看气象台名称。

然后点击查看天气观测和预报。

如需切换地图:点击带黑十字的绿色按钮放大地图;点击带横线的绿色按钮缩小地图;或者点击绿色箭头查看邻近地区的地图。


METAR-TAF: